createdAt,value
2024-05-09T00:00:35.247Z,0.73
2024-05-09T00:03:07.428Z,0.98
2024-05-09T00:05:34.472Z,0.60
2024-05-09T00:08:01.538Z,0.70
2024-05-09T00:10:35.546Z,0.75
2024-05-09T00:13:05.224Z,0.55
2024-05-09T00:15:33.479Z,0.75
2024-05-09T00:18:00.595Z,0.70
2024-05-09T00:20:35.950Z,0.63
2024-05-09T00:23:07.491Z,0.75
2024-05-09T00:25:35.284Z,0.50
2024-05-09T00:28:02.240Z,0.40
2024-05-09T00:30:34.296Z,0.73
2024-05-09T00:33:04.012Z,0.63
2024-05-09T00:35:31.400Z,0.50
2024-05-09T00:37:58.124Z,0.80
2024-05-09T00:40:35.050Z,0.77
2024-05-09T00:43:06.037Z,0.50
2024-05-09T00:45:33.456Z,0.65
2024-05-09T00:48:01.877Z,0.50
2024-05-09T00:50:35.675Z,0.80
2024-05-09T00:53:05.168Z,0.60
2024-05-09T00:55:31.993Z,0.65
2024-05-09T00:57:58.700Z,0.73
2024-05-09T01:00:31.743Z,0.50
2024-05-09T01:03:05.628Z,0.45
2024-05-09T01:05:32.700Z,0.80
2024-05-09T01:07:59.398Z,0.57
2024-05-09T01:10:33.540Z,0.90
2024-05-09T01:13:01.952Z,0.50
2024-05-09T01:15:28.574Z,0.70
2024-05-09T01:17:56.491Z,0.75
2024-05-09T01:20:32.101Z,0.55
2024-05-09T01:23:07.278Z,0.70
2024-05-09T01:25:34.100Z,0.60
2024-05-09T01:28:00.963Z,0.45
2024-05-09T01:30:34.080Z,0.50
2024-05-09T01:33:03.604Z,0.70
2024-05-09T01:35:30.607Z,0.50
2024-05-09T01:37:57.312Z,0.57
2024-05-09T01:40:33.436Z,0.60
2024-05-09T01:43:04.596Z,0.50
2024-05-09T01:45:31.209Z,0.60
2024-05-09T01:47:58.036Z,0.55
2024-05-09T01:50:36.194Z,0.47
2024-05-09T01:53:06.585Z,0.43
2024-05-09T01:55:33.227Z,0.60
2024-05-09T01:57:59.864Z,0.68
2024-05-09T02:00:36.947Z,0.70
2024-05-09T02:03:14.076Z,0.57
2024-05-09T02:05:43.888Z,0.60
2024-05-09T02:08:17.721Z,0.60
2024-05-09T02:10:45.386Z,0.80
2024-05-09T02:13:12.711Z,0.50
2024-05-09T02:15:39.717Z,0.60
2024-05-09T02:18:07.385Z,0.50
2024-05-09T02:20:36.748Z,0.55
2024-05-09T02:23:05.099Z,0.70
2024-05-09T02:25:32.162Z,0.60
2024-05-09T02:27:58.984Z,0.60
2024-05-09T02:30:35.656Z,0.40
2024-05-09T02:33:07.157Z,0.40
2024-05-09T02:35:34.132Z,0.50
2024-05-09T02:38:01.075Z,0.50
2024-05-09T02:40:35.808Z,0.50
2024-05-09T02:43:05.232Z,0.60
2024-05-09T02:45:32.099Z,0.43
2024-05-09T02:47:58.988Z,0.60
2024-05-09T02:50:33.900Z,0.65
2024-05-09T02:53:05.315Z,0.40
2024-05-09T02:55:31.999Z,0.60
2024-05-09T02:57:58.616Z,0.57
2024-05-09T03:00:34.306Z,0.70
2024-05-09T03:03:06.120Z,0.40
2024-05-09T03:05:33.261Z,0.50
2024-05-09T03:08:00.049Z,0.60
2024-05-09T03:10:29.098Z,0.65
2024-05-09T03:13:05.205Z,0.40
2024-05-09T03:15:33.163Z,0.52
2024-05-09T03:18:00.898Z,0.50
2024-05-09T03:20:33.382Z,0.57
2024-05-09T03:23:02.430Z,0.70
2024-05-09T03:25:29.371Z,0.60
2024-05-09T03:27:56.047Z,0.82
2024-05-09T03:30:35.841Z,0.70
2024-05-09T03:33:10.216Z,0.55
2024-05-09T03:35:37.148Z,0.60
2024-05-09T03:38:04.218Z,0.55
2024-05-09T03:40:31.433Z,0.70
2024-05-09T03:42:58.897Z,0.57
2024-05-09T03:45:25.633Z,1.23
2024-05-09T03:47:52.873Z,0.73
2024-05-09T03:50:26.404Z,0.60
2024-05-09T03:53:00.301Z,0.75
2024-05-09T03:55:27.051Z,0.70
2024-05-09T03:57:53.698Z,0.60
2024-05-09T04:00:30.406Z,0.60
2024-05-09T04:03:02.592Z,0.60
2024-05-09T04:05:31.132Z,0.50
2024-05-09T04:07:58.108Z,0.50
2024-05-09T04:10:31.371Z,0.47
2024-05-09T04:13:02.051Z,0.50
2024-05-09T04:15:28.908Z,0.70
2024-05-09T04:17:55.992Z,0.50
2024-05-09T04:20:33.299Z,0.70
2024-05-09T04:23:05.852Z,0.50
2024-05-09T04:25:32.749Z,0.50
2024-05-09T04:27:59.455Z,0.68
2024-05-09T04:30:34.862Z,0.60
2024-05-09T04:33:06.729Z,0.52
2024-05-09T04:35:34.550Z,0.50
2024-05-09T04:38:01.476Z,0.60
2024-05-09T04:40:33.482Z,0.52
2024-05-09T04:43:03.512Z,0.60
2024-05-09T04:45:30.598Z,0.50
2024-05-09T04:47:57.505Z,0.57
2024-05-09T04:50:33.799Z,0.60
2024-05-09T04:53:04.795Z,0.40
2024-05-09T04:55:31.821Z,0.70
2024-05-09T04:57:58.476Z,0.50
2024-05-09T05:00:34.160Z,0.50
2024-05-09T05:03:07.556Z,0.50
2024-05-09T05:05:37.673Z,0.60
2024-05-09T05:08:04.751Z,1.00
2024-05-09T05:10:36.046Z,0.40
2024-05-09T05:13:18.041Z,0.50
2024-05-09T05:15:46.258Z,0.40
2024-05-09T05:18:12.939Z,0.50
2024-05-09T05:20:39.654Z,0.50
2024-05-09T05:23:09.009Z,0.43
2024-05-09T05:25:35.709Z,0.60
2024-05-09T05:28:02.314Z,0.57
2024-05-09T05:30:34.195Z,0.55
2024-05-09T05:33:01.748Z,0.40
2024-05-09T05:35:28.665Z,0.50
2024-05-09T05:37:55.513Z,0.50
2024-05-09T05:40:28.656Z,0.50
2024-05-09T05:43:02.938Z,0.40
2024-05-09T05:45:29.553Z,0.40
2024-05-09T05:47:56.414Z,0.52
2024-05-09T05:50:28.103Z,0.50
2024-05-09T05:53:02.090Z,0.60
2024-05-09T05:55:28.878Z,0.40
2024-05-09T05:57:55.488Z,0.55
2024-05-09T06:00:29.699Z,0.60
2024-05-09T06:03:04.118Z,0.60
2024-05-09T06:05:30.845Z,0.60
2024-05-09T06:07:57.514Z,0.60
2024-05-09T06:10:29.666Z,0.80
2024-05-09T06:13:01.635Z,1.30
2024-05-09T06:15:28.229Z,0.73
2024-05-09T06:17:55.111Z,0.57
2024-05-09T06:20:31.524Z,0.60
2024-05-09T06:23:03.456Z,0.55
2024-05-09T06:25:30.301Z,0.50
2024-05-09T06:27:56.934Z,0.35
2024-05-09T06:30:30.702Z,0.77
2024-05-09T06:33:05.352Z,0.50
2024-05-09T06:35:32.785Z,0.40
2024-05-09T06:37:59.577Z,0.60
2024-05-09T06:40:35.888Z,0.50
2024-05-09T06:43:05.285Z,0.30
2024-05-09T06:45:31.900Z,0.40
2024-05-09T06:47:58.712Z,0.68
2024-05-09T06:50:28.527Z,0.40
2024-05-09T06:53:01.983Z,0.40
2024-05-09T06:55:28.745Z,0.55
2024-05-09T06:57:55.377Z,0.20
2024-05-09T07:00:27.755Z,0.30
2024-05-09T07:03:05.488Z,0.28
2024-05-09T07:05:33.471Z,0.30
2024-05-09T07:08:00.262Z,0.30
2024-05-09T07:10:32.994Z,0.50
2024-05-09T07:13:02.059Z,0.30
2024-05-09T07:15:28.676Z,0.45
2024-05-09T07:17:55.671Z,0.30
2024-05-09T07:20:31.749Z,0.45
2024-05-09T07:23:02.053Z,0.45
2024-05-09T07:25:28.937Z,0.40
2024-05-09T07:27:55.643Z,0.60
2024-05-09T07:30:27.754Z,0.50
2024-05-09T07:33:00.271Z,0.60
2024-05-09T07:35:27.483Z,0.50
2024-05-09T07:37:54.415Z,0.40
2024-05-09T07:40:31.613Z,0.45
2024-05-09T07:43:05.400Z,0.40
2024-05-09T07:45:48.227Z,0.60
2024-05-09T07:53:38.955Z,0.40
2024-05-09T07:56:09.005Z,0.30
2024-05-09T07:58:36.169Z,0.35
2024-05-09T08:01:03.059Z,0.50
2024-05-09T08:03:29.956Z,0.20
2024-05-09T08:05:56.932Z,0.20
2024-05-09T08:08:23.578Z,0.50
2024-05-09T08:10:50.564Z,0.50
2024-05-09T08:13:17.275Z,0.40
2024-05-09T08:15:43.997Z,0.38
2024-05-09T08:18:11.321Z,0.40
2024-05-09T08:20:38.778Z,0.40
2024-05-09T08:23:05.737Z,0.20
2024-05-09T08:25:32.372Z,0.50
2024-05-09T08:27:59.075Z,0.32
2024-05-09T08:30:32.807Z,0.40
2024-05-09T08:33:03.880Z,0.30
2024-05-09T08:35:30.633Z,0.30
2024-05-09T08:37:57.446Z,0.40
2024-05-09T08:40:30.969Z,0.20
2024-05-09T08:43:02.686Z,0.35
2024-05-09T08:45:29.612Z,0.40
2024-05-09T08:47:56.752Z,0.22
2024-05-09T08:50:32.239Z,0.20
2024-05-09T08:53:05.173Z,0.32
2024-05-09T08:55:32.322Z,0.30
2024-05-09T08:58:01.045Z,0.40
2024-05-09T09:00:35.806Z,0.20
2024-05-09T09:03:05.884Z,0.20
2024-05-09T09:05:33.826Z,0.20
2024-05-09T09:08:00.761Z,0.20
2024-05-09T09:10:32.141Z,0.10
2024-05-09T09:13:04.987Z,0.20
2024-05-09T09:15:32.559Z,0.20
2024-05-09T09:18:00.175Z,0.20
2024-05-09T09:20:34.181Z,0.10
2024-05-09T09:23:03.629Z,0.10
2024-05-09T09:25:30.318Z,0.10
2024-05-09T09:27:58.138Z,0.20
2024-05-09T09:30:34.709Z,0.10
2024-05-09T09:33:04.494Z,0.10
2024-05-09T09:35:31.315Z,0.10
2024-05-09T09:38:01.338Z,0.15
2024-05-09T09:40:32.302Z,0.17
2024-05-09T09:43:01.130Z,0.10
2024-05-09T09:45:31.623Z,0.10
2024-05-09T09:47:59.266Z,0.15
2024-05-09T09:50:33.385Z,0.10
2024-05-09T09:53:01.487Z,0.15
2024-05-09T09:55:28.557Z,0.10
2024-05-09T09:57:56.174Z,0.10
2024-05-09T10:00:30.395Z,0.13
2024-05-09T10:03:00.057Z,0.10
2024-05-09T10:05:27.157Z,0.20
2024-05-09T10:07:54.884Z,0.10
2024-05-09T10:10:29.880Z,0.10
2024-05-09T10:13:00.331Z,0.10
2024-05-09T10:15:27.427Z,0.03
2024-05-09T10:17:54.394Z,0.10
2024-05-09T10:20:22.228Z,0.10
2024-05-09T10:22:54.314Z,0.30
2024-05-09T10:25:21.142Z,0.10
2024-05-09T10:27:54.618Z,0.03
2024-05-09T10:30:29.570Z,0.10
2024-05-09T10:33:02.302Z,0.10
2024-05-09T10:35:31.434Z,0.20
2024-05-09T10:38:03.439Z,0.20
2024-05-09T10:40:31.827Z,0.10
2024-05-09T10:43:02.546Z,0.08
2024-05-09T10:45:32.248Z,0.20
2024-05-09T10:47:59.061Z,0.47
2024-05-09T10:50:29.182Z,0.20
2024-05-09T10:53:00.486Z,0.60
2024-05-09T10:55:27.594Z,0.43
2024-05-09T10:57:54.453Z,0.10
2024-05-09T11:00:27.649Z,0.10
2024-05-09T11:03:00.267Z,0.30
2024-05-09T11:05:27.250Z,0.20
2024-05-09T11:07:54.140Z,0.15
2024-05-09T11:10:27.638Z,0.13
2024-05-09T11:13:00.188Z,0.17
2024-05-09T11:15:37.290Z,0.10
2024-05-09T11:18:04.065Z,0.05
2024-05-09T11:20:35.504Z,0.10
2024-05-09T11:23:06.313Z,0.10
2024-05-09T11:25:33.433Z,0.10
2024-05-09T11:28:00.855Z,0.08
2024-05-09T11:30:32.001Z,0.05
2024-05-09T11:32:59.503Z,0.10
2024-05-09T11:35:27.096Z,0.20
2024-05-09T11:37:53.763Z,0.10
2024-05-09T11:40:25.504Z,0.00
2024-05-09T11:42:55.344Z,0.10
2024-05-09T11:45:22.152Z,0.00
2024-05-09T11:47:49.023Z,0.10
2024-05-09T11:50:22.635Z,0.13
2024-05-09T11:52:56.139Z,0.10
2024-05-09T11:55:27.218Z,0.10
2024-05-09T11:57:54.689Z,0.00
2024-05-09T12:00:29.480Z,0.05
2024-05-09T12:03:05.435Z,0.10
2024-05-09T12:05:33.785Z,0.15
2024-05-09T12:08:01.231Z,0.05
2024-05-09T12:10:33.276Z,0.10
2024-05-09T12:13:02.642Z,0.65
2024-05-09T12:15:29.996Z,0.30
2024-05-09T12:17:59.063Z,0.20
2024-05-09T12:20:35.502Z,0.30
2024-05-09T12:23:05.199Z,0.40
2024-05-09T12:25:31.776Z,0.30
2024-05-09T12:27:58.572Z,0.30
2024-05-09T12:30:33.305Z,0.20
2024-05-09T12:33:05.014Z,0.25
2024-05-09T12:35:31.886Z,0.38
2024-05-09T12:37:58.632Z,0.30
2024-05-09T12:40:34.300Z,0.20
2024-05-09T12:43:04.407Z,0.20
2024-05-09T12:45:31.411Z,0.20
2024-05-09T12:47:58.412Z,0.20
2024-05-09T12:50:31.651Z,0.20
2024-05-09T12:53:00.488Z,0.10
2024-05-09T12:55:28.356Z,0.30
2024-05-09T12:57:56.514Z,0.20
2024-05-09T13:00:28.248Z,0.28
2024-05-09T13:03:00.689Z,0.10
2024-05-09T13:05:28.079Z,0.25
2024-05-09T13:07:56.705Z,0.20
2024-05-09T13:10:30.754Z,0.20
2024-05-09T13:13:00.121Z,0.10
2024-05-09T13:15:27.130Z,0.13
2024-05-09T13:17:55.835Z,0.13
2024-05-09T13:20:31.176Z,0.10
2024-05-09T13:23:01.681Z,0.10
2024-05-09T13:25:28.357Z,0.30
2024-05-09T13:27:55.229Z,0.30
2024-05-09T13:30:29.482Z,0.20
2024-05-09T13:33:05.160Z,0.10
2024-05-09T13:35:32.340Z,0.13
2024-05-09T13:37:59.030Z,0.20
2024-05-09T13:40:32.688Z,0.47
2024-05-09T13:43:02.177Z,0.63
2024-05-09T13:45:29.070Z,0.52
2024-05-09T13:47:56.012Z,0.47
2024-05-09T13:50:31.136Z,0.43
2024-05-09T13:53:01.913Z,0.20
2024-05-09T13:55:28.803Z,0.40
2024-05-09T13:57:55.715Z,0.28
2024-05-09T14:00:32.251Z,0.22
2024-05-09T14:03:09.197Z,0.30
2024-05-09T14:05:36.199Z,0.17
2024-05-09T14:08:03.268Z,0.30
2024-05-09T14:10:31.858Z,0.32
2024-05-09T14:12:59.307Z,0.20
2024-05-09T14:15:26.015Z,0.30
2024-05-09T14:17:52.775Z,0.38
2024-05-09T14:20:28.565Z,0.30
2024-05-09T14:22:58.322Z,0.45
2024-05-09T14:25:26.754Z,0.28
2024-05-09T14:27:53.895Z,0.40
2024-05-09T14:30:30.128Z,0.28
2024-05-09T14:33:02.708Z,0.20
2024-05-09T14:35:29.462Z,0.40
2024-05-09T14:37:56.117Z,0.50
2024-05-09T14:40:35.799Z,0.20
2024-05-09T14:43:07.857Z,0.25
2024-05-09T14:45:34.780Z,0.40
2024-05-09T14:48:03.520Z,0.22
2024-05-09T14:50:36.062Z,0.30
2024-05-09T14:53:06.682Z,0.52
2024-05-09T14:55:36.519Z,0.43
2024-05-09T14:58:05.964Z,0.40
2024-05-09T15:00:35.969Z,0.20
2024-05-09T15:03:04.315Z,0.20
2024-05-09T15:05:31.092Z,0.20
2024-05-09T15:07:58.149Z,0.40
2024-05-09T15:10:33.699Z,0.52
2024-05-09T15:13:02.992Z,0.70
2024-05-09T15:15:30.073Z,0.93
2024-05-09T15:17:57.004Z,0.88
2024-05-09T15:20:31.249Z,1.05
2024-05-09T15:23:02.230Z,0.52
2024-05-09T15:25:29.096Z,0.55
2024-05-09T15:27:56.015Z,0.90
2024-05-09T15:32:52.378Z,0.70
2024-05-09T15:35:19.131Z,0.80
2024-05-09T15:37:48.346Z,0.60
2024-05-09T15:40:21.603Z,0.63
2024-05-09T15:42:53.444Z,0.65
2024-05-09T15:45:20.168Z,0.57
2024-05-09T15:47:46.992Z,0.57
2024-05-09T15:50:20.473Z,0.57
2024-05-09T15:52:55.455Z,0.60
2024-05-09T15:55:22.103Z,1.00
2024-05-09T15:57:48.780Z,0.90
2024-05-09T16:00:24.715Z,0.77
2024-05-09T16:03:00.055Z,0.90
2024-05-09T16:05:27.152Z,1.00
2024-05-09T16:07:54.080Z,1.02
2024-05-09T16:10:25.921Z,1.13
2024-05-09T16:12:58.648Z,1.23
2024-05-09T16:15:25.325Z,1.45
2024-05-09T16:17:52.030Z,1.20
2024-05-09T16:20:29.597Z,1.02
2024-05-09T16:23:04.789Z,1.38
2024-05-09T16:25:31.451Z,1.20
2024-05-09T16:27:58.339Z,1.10
2024-05-09T16:30:31.800Z,0.90
2024-05-09T16:33:02.009Z,0.75
2024-05-09T16:35:28.805Z,1.20
2024-05-09T16:37:55.406Z,0.88
2024-05-09T16:40:30.062Z,0.98
2024-05-09T16:43:04.443Z,1.17
2024-05-09T16:45:31.474Z,0.98
2024-05-09T16:47:59.042Z,0.70
2024-05-09T16:50:31.080Z,0.88
2024-05-09T16:53:00.103Z,0.90
2024-05-09T16:55:27.023Z,0.82
2024-05-09T16:57:54.469Z,0.82
2024-05-09T17:00:31.252Z,0.70
2024-05-09T17:03:06.597Z,0.70
2024-05-09T17:05:33.881Z,0.52
2024-05-09T17:08:01.318Z,0.63
2024-05-09T17:10:32.814Z,0.60
2024-05-09T17:13:01.763Z,0.70
2024-05-09T17:15:28.666Z,0.80
2024-05-09T17:17:55.972Z,0.60
2024-05-09T17:20:29.690Z,0.88
2024-05-09T17:23:02.261Z,1.08
2024-05-09T17:25:29.580Z,0.60
2024-05-09T17:27:56.780Z,0.80
2024-05-09T17:30:31.641Z,0.70
2024-05-09T17:33:02.653Z,0.57
2024-05-09T17:35:29.459Z,0.50
2024-05-09T17:37:56.737Z,0.38
2024-05-09T17:42:53.015Z,0.50
2024-05-09T17:45:20.665Z,0.70
2024-05-09T17:47:47.816Z,0.93
2024-05-09T17:50:21.032Z,0.50
2024-05-09T17:52:53.818Z,0.57
2024-05-09T17:55:20.747Z,0.50
2024-05-09T17:57:47.511Z,0.70
2024-05-09T18:00:17.461Z,0.60
2024-05-09T18:02:48.353Z,0.60
2024-05-09T18:05:15.143Z,0.52
2024-05-09T18:07:41.827Z,0.50
2024-05-09T18:10:16.059Z,0.50
2024-05-09T18:12:49.018Z,0.68
2024-05-09T18:15:15.696Z,0.60
2024-05-09T18:17:42.762Z,0.68
2024-05-09T18:20:14.121Z,0.80
2024-05-09T18:22:46.338Z,0.70
2024-05-09T18:25:13.147Z,0.50
2024-05-09T18:27:39.913Z,0.40
2024-05-09T18:30:09.466Z,0.55
2024-05-09T18:32:38.391Z,0.40
2024-05-09T18:35:05.209Z,0.60
2024-05-09T18:37:31.882Z,0.70
2024-05-09T18:39:58.559Z,0.52
2024-05-09T18:42:25.158Z,0.65
2024-05-09T18:44:51.764Z,0.50
2024-05-09T18:47:20.251Z,0.40
2024-05-09T18:49:47.299Z,0.52
2024-05-09T18:52:14.248Z,0.35
2024-05-09T18:54:41.092Z,0.50
2024-05-09T18:57:07.882Z,0.50
2024-05-09T18:59:34.494Z,0.40
2024-05-09T19:02:01.272Z,0.47
2024-05-09T19:04:28.170Z,0.50
2024-05-09T19:06:54.919Z,0.47
2024-05-09T19:09:21.732Z,0.40
2024-05-09T19:11:48.394Z,0.73
2024-05-09T19:14:15.510Z,0.70
2024-05-09T19:16:43.702Z,0.25
2024-05-09T19:19:10.437Z,0.60
2024-05-09T19:21:39.732Z,0.40
2024-05-09T19:24:07.994Z,0.40
2024-05-09T19:26:34.682Z,0.43
2024-05-09T19:29:01.256Z,0.43
2024-05-09T19:31:29.017Z,0.63
2024-05-09T19:33:55.699Z,0.40
2024-05-09T19:36:22.281Z,0.52
2024-05-09T19:38:51.446Z,0.40
2024-05-09T19:41:18.186Z,0.40
2024-05-09T19:43:44.767Z,0.32
2024-05-09T19:46:11.663Z,0.50
2024-05-09T19:48:38.491Z,0.38
2024-05-09T19:51:05.415Z,0.50
2024-05-09T19:53:32.062Z,0.77
2024-05-09T19:55:58.892Z,0.40
2024-05-09T19:58:25.792Z,0.50
2024-05-09T20:00:52.667Z,0.60
2024-05-09T20:03:19.508Z,0.70
2024-05-09T20:05:47.078Z,0.52
2024-05-09T20:08:14.054Z,0.60
2024-05-09T20:10:40.832Z,0.80
2024-05-09T20:13:10.280Z,0.80
2024-05-09T20:15:37.941Z,0.68
2024-05-09T20:18:05.637Z,0.63
2024-05-09T20:20:38.948Z,0.60
2024-05-09T20:23:08.740Z,0.40
2024-05-09T20:25:35.525Z,0.70
2024-05-09T20:28:02.472Z,0.77
2024-05-09T20:30:32.700Z,0.50
2024-05-09T20:33:02.734Z,0.63
2024-05-09T20:35:32.054Z,0.45
2024-05-09T20:37:58.970Z,0.32
2024-05-09T20:40:31.658Z,0.52
2024-05-09T20:43:01.986Z,0.50
2024-05-09T20:45:28.719Z,0.47
2024-05-09T20:47:55.535Z,0.50
2024-05-09T20:50:29.208Z,0.68
2024-05-09T20:53:03.493Z,0.45
2024-05-09T20:55:30.453Z,0.45
2024-05-09T20:57:57.543Z,0.60
2024-05-09T21:00:33.845Z,0.57
2024-05-09T21:03:05.741Z,0.50
2024-05-09T21:05:32.683Z,0.40
2024-05-09T21:07:59.385Z,0.50
2024-05-09T21:10:27.105Z,0.57
2024-05-09T21:12:56.415Z,0.50
2024-05-09T21:15:23.173Z,0.80
2024-05-09T21:17:49.813Z,0.65
2024-05-09T21:20:20.622Z,0.50
2024-05-09T21:22:50.935Z,0.80
2024-05-09T21:25:17.561Z,0.45
2024-05-09T21:27:44.273Z,0.40
2024-05-09T21:30:18.433Z,0.40
2024-05-09T21:32:49.884Z,0.30
2024-05-09T21:35:17.287Z,0.40
2024-05-09T21:37:43.924Z,0.45
2024-05-09T21:40:13.969Z,0.40
2024-05-09T21:42:48.238Z,0.63
2024-05-09T21:45:14.896Z,0.40
2024-05-09T21:47:41.833Z,0.50
2024-05-09T21:50:12.468Z,0.63
2024-05-09T21:52:41.966Z,0.30
2024-05-09T21:55:08.846Z,0.40
2024-05-09T21:57:35.626Z,0.30
2024-05-09T22:00:03.191Z,0.40
2024-05-09T22:02:31.057Z,0.32
2024-05-09T22:04:58.005Z,0.40
2024-05-09T22:07:24.822Z,0.32
2024-05-09T22:09:51.505Z,0.57
2024-05-09T22:12:18.093Z,0.40
2024-05-09T22:14:44.813Z,0.60
2024-05-09T22:17:11.475Z,0.50
2024-05-09T22:19:38.214Z,0.85
2024-05-09T22:22:05.134Z,0.80
2024-05-09T22:24:31.889Z,0.70
2024-05-09T22:26:58.551Z,0.82
2024-05-09T22:29:25.174Z,1.05
2024-05-09T22:31:51.780Z,0.80
2024-05-09T22:34:18.683Z,0.80
2024-05-09T22:36:45.445Z,1.00
2024-05-09T22:39:12.088Z,0.70
2024-05-09T22:41:39.643Z,0.80
2024-05-09T22:44:06.288Z,0.80
2024-05-09T22:46:32.904Z,0.80
2024-05-09T22:48:59.716Z,0.70
2024-05-09T22:51:26.403Z,0.63
2024-05-09T22:53:53.088Z,0.77
2024-05-09T22:56:26.112Z,0.75
2024-05-09T22:58:52.781Z,0.50
2024-05-09T23:01:19.500Z,0.80
2024-05-09T23:03:46.837Z,0.73
2024-05-09T23:06:13.738Z,0.80
2024-05-09T23:08:40.528Z,0.60
2024-05-09T23:11:07.197Z,0.73
2024-05-09T23:13:34.823Z,0.77
2024-05-09T23:16:01.792Z,0.70
2024-05-09T23:18:28.479Z,0.75
2024-05-09T23:20:55.141Z,0.55
2024-05-09T23:23:22.113Z,0.50
2024-05-09T23:25:49.383Z,0.65
2024-05-09T23:28:16.207Z,0.60
2024-05-09T23:30:42.895Z,0.50
2024-05-09T23:33:12.395Z,0.50
2024-05-09T23:35:41.269Z,0.43
2024-05-09T23:38:07.869Z,0.45
2024-05-09T23:40:39.051Z,0.50
2024-05-09T23:43:11.850Z,0.57
2024-05-09T23:45:39.381Z,0.50
2024-05-09T23:48:06.366Z,0.40
2024-05-09T23:50:36.539Z,0.50
2024-05-09T23:53:06.108Z,0.65
2024-05-09T23:55:33.667Z,0.55
2024-05-09T23:58:00.647Z,0.45
